createdAt,value
2023-02-02T00:01:01.935Z,80.39
2023-02-02T00:03:28.568Z,80.64
2023-02-02T00:05:55.306Z,80.83
2023-02-02T00:08:22.093Z,80.59
2023-02-02T00:10:50.461Z,80.49
2023-02-02T00:13:17.437Z,80.74
2023-02-02T00:15:44.572Z,80.85
2023-02-02T00:18:11.191Z,81.11
2023-02-02T00:20:38.246Z,81.01
2023-02-02T00:23:05.323Z,81.07
2023-02-02T00:25:32.468Z,80.96
2023-02-02T00:27:59.089Z,80.95
2023-02-02T00:30:25.715Z,81.05
2023-02-02T00:32:53.227Z,81.20
2023-02-02T00:35:20.664Z,81.08
2023-02-02T00:37:47.304Z,81.03
2023-02-02T00:40:14.065Z,81.13
2023-02-02T00:42:40.820Z,81.45
2023-02-02T00:45:17.084Z,81.92
2023-02-02T00:47:47.355Z,82.18
2023-02-02T00:50:16.682Z,82.66
2023-02-02T00:52:43.599Z,82.67
2023-02-02T00:55:11.429Z,82.90
2023-02-02T00:57:38.352Z,83.28
2023-02-02T01:00:06.984Z,83.32
2023-02-02T01:02:34.941Z,83.31
2023-02-02T01:05:02.545Z,83.58
2023-02-02T01:07:29.238Z,83.37
2023-02-02T01:09:57.065Z,83.24
2023-02-02T01:12:24.391Z,83.25
2023-02-02T01:14:51.025Z,83.20
2023-02-02T01:17:17.685Z,83.45
2023-02-02T01:19:44.313Z,83.25
2023-02-02T01:22:11.873Z,83.56
2023-02-02T01:24:38.952Z,83.52
2023-02-02T01:27:05.959Z,83.77
2023-02-02T01:29:32.673Z,83.90
2023-02-02T01:31:59.347Z,84.11
2023-02-02T01:34:25.885Z,84.10
2023-02-02T01:36:52.482Z,84.45
2023-02-02T01:39:19.791Z,84.55
2023-02-02T01:41:46.419Z,84.67
2023-02-02T01:44:50.951Z,84.58
2023-02-02T01:47:19.372Z,84.99
2023-02-02T01:49:45.978Z,84.78
2023-02-02T01:52:14.783Z,84.87
2023-02-02T01:54:55.032Z,85.00
2023-02-02T01:57:28.083Z,84.97
2023-02-02T01:59:56.032Z,85.01
2023-02-02T02:02:25.230Z,84.87
2023-02-02T02:04:51.946Z,85.21
2023-02-02T02:07:18.792Z,84.89
2023-02-02T02:09:45.435Z,84.87
2023-02-02T02:12:15.335Z,84.83
2023-02-02T02:15:04.310Z,84.76
2023-02-02T02:17:48.117Z,84.99
2023-02-02T02:21:10.718Z,85.09
2023-02-02T02:24:33.868Z,85.12
2023-02-02T02:27:22.969Z,85.37
2023-02-02T02:30:17.828Z,85.38
2023-02-02T02:33:02.737Z,85.49
2023-02-02T02:35:44.379Z,85.45
2023-02-02T02:38:10.933Z,85.60
2023-02-02T02:40:47.395Z,85.63
2023-02-02T02:43:37.666Z,85.48
2023-02-02T02:46:05.235Z,85.37
2023-02-02T02:48:32.043Z,85.79
2023-02-02T02:51:09.508Z,85.66
2023-02-02T02:53:37.030Z,85.66
2023-02-02T02:56:20.345Z,85.70
2023-02-02T02:58:52.037Z,85.66
2023-02-02T03:01:19.093Z,85.55
2023-02-02T03:03:52.749Z,85.53
2023-02-02T03:06:25.342Z,85.50
2023-02-02T03:09:25.588Z,85.63
2023-02-02T03:11:52.239Z,85.67
2023-02-02T03:14:18.892Z,85.63
2023-02-02T03:16:45.470Z,85.66
2023-02-02T03:19:12.258Z,85.29
2023-02-02T03:21:38.859Z,85.55
2023-02-02T03:24:05.699Z,85.57
2023-02-02T03:26:32.287Z,85.42
2023-02-02T03:28:58.875Z,85.44
2023-02-02T03:31:27.223Z,85.23
2023-02-02T03:33:54.288Z,85.48
2023-02-02T03:36:21.492Z,85.39
2023-02-02T03:38:48.187Z,85.64
2023-02-02T03:41:15.194Z,85.56
2023-02-02T03:43:41.824Z,85.59
2023-02-02T03:46:08.484Z,85.79
2023-02-02T03:48:37.457Z,85.73
2023-02-02T03:51:12.798Z,85.78
2023-02-02T03:53:40.696Z,85.76
2023-02-02T03:56:07.542Z,85.66
2023-02-02T03:58:34.145Z,85.80
2023-02-02T04:01:05.745Z,85.82
2023-02-02T04:03:32.929Z,85.85
2023-02-02T04:06:00.035Z,85.85
2023-02-02T04:08:26.783Z,85.71
2023-02-02T04:10:53.431Z,85.76
2023-02-02T04:13:20.200Z,85.66
2023-02-02T04:15:46.872Z,85.66
2023-02-02T04:18:13.477Z,85.48
2023-02-02T04:20:40.100Z,85.56
2023-02-02T04:23:06.724Z,85.29
2023-02-02T04:25:33.285Z,85.20
2023-02-02T04:28:00.480Z,85.06
2023-02-02T04:30:27.074Z,85.01
2023-02-02T04:32:54.752Z,84.68
2023-02-02T04:35:21.426Z,84.80
2023-02-02T04:37:48.019Z,84.73
2023-02-02T04:40:14.864Z,84.53
2023-02-02T04:42:41.411Z,84.64
2023-02-02T04:45:08.294Z,84.69
2023-02-02T04:47:34.912Z,84.68
2023-02-02T04:50:01.597Z,84.73
2023-02-02T04:52:29.324Z,84.74
2023-02-02T04:54:55.980Z,84.75
2023-02-02T04:57:22.635Z,84.87
2023-02-02T04:59:49.228Z,84.76
2023-02-02T05:02:15.933Z,84.61
2023-02-02T05:04:42.726Z,84.67
2023-02-02T05:07:09.325Z,84.74
2023-02-02T05:09:35.882Z,84.81
2023-02-02T05:12:02.609Z,85.05
2023-02-02T05:14:29.573Z,85.00
2023-02-02T05:16:56.334Z,85.22
2023-02-02T05:19:23.048Z,85.30
2023-02-02T05:21:51.204Z,85.62
2023-02-02T05:24:18.081Z,85.45
2023-02-02T05:26:44.663Z,85.60
2023-02-02T05:29:14.726Z,85.48
2023-02-02T05:31:47.463Z,85.55
2023-02-02T05:34:14.162Z,85.31
2023-02-02T05:36:41.055Z,85.23
2023-02-02T05:39:07.739Z,85.18
2023-02-02T05:41:34.381Z,84.89
2023-02-02T05:44:01.285Z,85.11
2023-02-02T05:46:40.314Z,84.73
2023-02-02T05:49:07.380Z,84.62
2023-02-02T05:51:45.870Z,84.77
2023-02-02T05:54:13.145Z,84.88
2023-02-02T05:56:39.749Z,85.02
2023-02-02T05:59:07.489Z,85.02
2023-02-02T06:01:34.457Z,84.96
2023-02-02T06:04:01.114Z,85.00
2023-02-02T06:06:27.739Z,84.73
2023-02-02T06:08:54.546Z,84.74
2023-02-02T06:11:21.208Z,84.83
2023-02-02T06:13:47.824Z,84.63
2023-02-02T06:16:14.454Z,84.64
2023-02-02T06:18:41.663Z,84.64
2023-02-02T06:21:08.641Z,84.61
2023-02-02T06:23:35.452Z,85.02
2023-02-02T06:26:03.456Z,85.29
2023-02-02T06:28:34.341Z,85.03
2023-02-02T06:31:09.533Z,85.14
2023-02-02T06:33:37.510Z,85.45
2023-02-02T06:36:06.464Z,85.62
2023-02-02T06:38:52.177Z,85.78
2023-02-02T06:41:25.207Z,85.78
2023-02-02T06:43:52.989Z,85.79
2023-02-02T06:46:21.547Z,85.85
2023-02-02T06:48:48.503Z,86.02
2023-02-02T06:51:15.153Z,86.06
2023-02-02T06:54:00.896Z,86.10
2023-02-02T06:56:31.467Z,86.20
2023-02-02T06:58:58.036Z,86.05
2023-02-02T07:01:24.795Z,85.94
2023-02-02T07:03:51.998Z,85.95
2023-02-02T07:06:27.288Z,86.11
2023-02-02T07:09:01.876Z,86.04
2023-02-02T07:11:32.575Z,86.07
2023-02-02T07:14:05.640Z,86.08
2023-02-02T07:16:32.304Z,86.04
2023-02-02T07:18:58.981Z,86.08
2023-02-02T07:21:28.279Z,86.08
2023-02-02T07:23:55.007Z,86.17
2023-02-02T07:26:21.673Z,86.15
2023-02-02T07:28:51.922Z,86.25
2023-02-02T07:31:24.446Z,86.36
2023-02-02T07:33:51.432Z,86.25
2023-02-02T07:36:20.008Z,86.31
2023-02-02T07:38:48.238Z,86.42
2023-02-02T07:41:16.142Z,86.59
2023-02-02T07:43:43.507Z,86.53
2023-02-02T07:46:12.775Z,86.43
2023-02-02T07:48:40.623Z,86.60
2023-02-02T07:51:09.922Z,86.58
2023-02-02T07:53:36.675Z,86.48
2023-02-02T07:56:18.123Z,86.55
2023-02-02T07:58:45.029Z,86.68
2023-02-02T08:01:13.317Z,86.62
2023-02-02T08:03:40.580Z,86.57
2023-02-02T08:06:18.721Z,86.87
2023-02-02T08:08:45.886Z,86.79
2023-02-02T08:11:13.834Z,86.92
2023-02-02T08:13:41.357Z,86.96
2023-02-02T08:16:08.898Z,87.05
2023-02-02T08:18:36.372Z,87.20
2023-02-02T08:21:04.781Z,87.26
2023-02-02T08:23:31.880Z,87.45
2023-02-02T08:26:10.788Z,87.24
2023-02-02T08:28:37.959Z,87.44
2023-02-02T08:31:06.477Z,87.59
2023-02-02T08:33:33.229Z,87.43
2023-02-02T08:36:00.052Z,87.45
2023-02-02T08:38:26.710Z,87.66
2023-02-02T08:40:53.446Z,87.57
2023-02-02T08:43:20.254Z,87.48
2023-02-02T08:46:03.094Z,87.64
2023-02-02T08:48:31.541Z,87.69
2023-02-02T08:50:59.127Z,87.84
2023-02-02T08:53:26.811Z,87.82
2023-02-02T08:56:01.077Z,87.72
2023-02-02T08:58:28.485Z,87.60
2023-02-02T09:00:55.357Z,87.65
2023-02-02T09:03:22.020Z,87.64
2023-02-02T09:05:48.673Z,87.88
2023-02-02T09:08:15.315Z,87.75
2023-02-02T09:10:41.984Z,87.81
2023-02-02T09:13:08.710Z,88.06
2023-02-02T09:15:36.028Z,87.92
2023-02-02T09:18:02.766Z,88.16
2023-02-02T09:20:29.375Z,88.29
2023-02-02T09:22:57.094Z,88.15
2023-02-02T09:25:26.173Z,88.38
2023-02-02T09:27:53.286Z,88.50
2023-02-02T09:30:20.296Z,88.41
2023-02-02T09:32:49.337Z,88.60
2023-02-02T09:35:16.470Z,88.51
2023-02-02T09:37:45.321Z,88.59
2023-02-02T09:40:18.837Z,88.28
2023-02-02T09:43:13.918Z,88.50
2023-02-02T09:46:16.171Z,88.64
2023-02-02T09:48:54.980Z,88.82
2023-02-02T09:51:24.951Z,88.63
2023-02-02T09:54:01.653Z,88.69
2023-02-02T09:56:51.313Z,88.47
2023-02-02T09:59:24.717Z,88.48
2023-02-02T10:01:55.373Z,88.62
2023-02-02T10:04:27.825Z,88.20
2023-02-02T10:06:58.054Z,88.14
2023-02-02T10:09:30.957Z,88.10
2023-02-02T10:12:19.926Z,88.10
2023-02-02T10:14:52.821Z,87.82
2023-02-02T10:17:52.935Z,87.83
2023-02-02T10:20:48.141Z,87.84
2023-02-02T10:23:34.578Z,87.45
2023-02-02T10:26:16.828Z,87.31
2023-02-02T10:29:06.216Z,87.55
2023-02-02T10:31:43.394Z,87.10
2023-02-02T10:34:23.931Z,86.86
2023-02-02T10:36:56.373Z,86.84
2023-02-02T10:39:42.075Z,86.59
2023-02-02T10:42:37.266Z,86.53
2023-02-02T10:45:20.672Z,86.07
2023-02-02T10:47:50.014Z,86.01
2023-02-02T10:50:23.461Z,85.81
2023-02-02T10:52:56.815Z,85.54
2023-02-02T10:55:43.402Z,85.27
2023-02-02T10:58:15.220Z,85.52
2023-02-02T11:01:14.304Z,85.27
2023-02-02T11:03:44.764Z,84.88
2023-02-02T11:06:40.128Z,85.17
2023-02-02T11:09:20.089Z,84.99
2023-02-02T11:11:58.194Z,85.03
2023-02-02T11:14:45.428Z,84.92
2023-02-02T11:17:24.894Z,84.80
2023-02-02T11:20:05.998Z,84.51
2023-02-02T11:22:39.132Z,84.47
2023-02-02T11:25:20.136Z,84.32
2023-02-02T11:27:59.363Z,84.60
2023-02-02T11:30:37.949Z,84.27
2023-02-02T11:33:22.816Z,84.27
2023-02-02T11:35:55.805Z,84.68
2023-02-02T11:38:22.720Z,84.27
2023-02-02T11:41:02.220Z,84.05
2023-02-02T11:43:31.807Z,84.42
2023-02-02T11:46:02.849Z,84.16
2023-02-02T11:48:36.122Z,84.17
2023-02-02T11:51:04.439Z,83.81
2023-02-02T11:53:35.133Z,83.71
2023-02-02T11:56:17.592Z,84.01
2023-02-02T11:58:52.275Z,83.70
2023-02-02T12:01:30.818Z,83.32
2023-02-02T12:04:03.417Z,83.24
2023-02-02T12:06:33.006Z,83.12
2023-02-02T12:09:02.239Z,83.15
2023-02-02T12:11:35.013Z,82.31
2023-02-02T12:14:17.026Z,82.50
2023-02-02T12:16:56.877Z,82.73
2023-02-02T12:19:43.335Z,82.43
2023-02-02T12:22:20.006Z,81.73
2023-02-02T12:24:57.096Z,81.91
2023-02-02T12:28:02.707Z,81.59
2023-02-02T12:30:41.249Z,81.53
2023-02-02T12:33:29.850Z,80.50
2023-02-02T12:36:10.731Z,80.47
2023-02-02T12:38:57.707Z,80.43
2023-02-02T12:41:44.322Z,80.60
2023-02-02T12:44:23.090Z,79.80
2023-02-02T12:47:09.106Z,79.85
2023-02-02T12:49:39.029Z,80.42
2023-02-02T12:52:06.069Z,79.98
2023-02-02T12:54:46.167Z,79.93
2023-02-02T12:57:38.947Z,79.80
2023-02-02T13:00:14.183Z,80.14
2023-02-02T13:03:05.620Z,79.89
2023-02-02T13:05:41.872Z,80.07
2023-02-02T13:08:12.183Z,79.33
2023-02-02T13:10:42.052Z,79.97
2023-02-02T13:13:16.419Z,79.95
2023-02-02T13:15:46.898Z,80.14
2023-02-02T13:18:23.676Z,79.77
2023-02-02T13:20:56.645Z,80.16
2023-02-02T13:23:29.097Z,79.75
2023-02-02T13:26:07.596Z,80.57
2023-02-02T13:28:58.488Z,80.89
2023-02-02T13:31:33.933Z,80.59
2023-02-02T13:34:18.174Z,80.80
2023-02-02T13:36:49.530Z,81.00
2023-02-02T13:39:37.030Z,81.39
2023-02-02T13:42:16.801Z,80.78
2023-02-02T13:44:50.066Z,81.01
2023-02-02T13:47:21.188Z,80.74
2023-02-02T13:49:52.246Z,80.48
2023-02-02T13:52:43.052Z,80.96
2023-02-02T13:56:06.591Z,81.27
2023-02-02T13:58:51.364Z,81.76
2023-02-02T14:01:19.192Z,82.77
2023-02-02T14:03:56.844Z,82.92
2023-02-02T14:06:25.901Z,83.91
2023-02-02T14:08:56.288Z,84.03
2023-02-02T14:11:23.240Z,83.53
2023-02-02T14:14:11.434Z,83.55
2023-02-02T14:16:38.028Z,83.64
2023-02-02T14:19:41.829Z,83.38
2023-02-02T14:22:08.802Z,83.19
2023-02-02T14:24:35.631Z,82.54
2023-02-02T14:27:08.320Z,82.19
2023-02-02T14:29:46.740Z,81.94
2023-02-02T14:32:29.126Z,82.28
2023-02-02T14:35:26.078Z,82.00
2023-02-02T14:38:08.134Z,81.36
2023-02-02T14:40:56.856Z,81.51
2023-02-02T14:43:46.208Z,81.37
2023-02-02T14:46:13.148Z,81.13
2023-02-02T14:48:42.225Z,81.22
2023-02-02T14:51:22.348Z,80.74
2023-02-02T14:53:55.354Z,80.77
2023-02-02T14:56:38.597Z,80.83
2023-02-02T14:59:07.399Z,80.50
2023-02-02T15:01:35.938Z,80.11
2023-02-02T15:04:17.926Z,79.99
2023-02-02T15:06:44.571Z,79.89
2023-02-02T15:09:20.353Z,79.84
2023-02-02T15:12:01.104Z,80.38
2023-02-02T15:14:39.107Z,80.61
2023-02-02T15:17:12.521Z,80.66
2023-02-02T15:19:41.991Z,80.80
2023-02-02T15:22:24.300Z,80.92
2023-02-02T15:24:51.909Z,81.06
2023-02-02T15:27:19.636Z,80.79
2023-02-02T15:29:49.697Z,80.96
2023-02-02T15:32:20.449Z,81.20
2023-02-02T15:34:50.287Z,81.00
2023-02-02T15:37:22.977Z,81.13
2023-02-02T15:39:52.866Z,81.13
2023-02-02T15:42:52.571Z,81.37
2023-02-02T15:45:29.144Z,81.37
2023-02-02T15:48:00.183Z,81.47
2023-02-02T15:50:27.617Z,81.63
2023-02-02T15:52:55.121Z,81.69
2023-02-02T15:55:29.765Z,82.35
2023-02-02T15:57:56.837Z,82.44
2023-02-02T16:00:30.788Z,82.45
2023-02-02T16:03:10.024Z,83.12
2023-02-02T16:05:36.609Z,83.55
2023-02-02T16:08:07.232Z,84.14
2023-02-02T16:10:34.612Z,84.96
2023-02-02T16:13:01.870Z,85.36
2023-02-02T16:15:29.827Z,85.39
2023-02-02T16:18:05.501Z,85.99
2023-02-02T16:20:36.274Z,86.31
2023-02-02T16:23:06.152Z,86.69
2023-02-02T16:25:35.061Z,87.03
2023-02-02T16:28:03.207Z,87.46
2023-02-02T16:30:30.803Z,87.49
2023-02-02T16:32:57.717Z,88.10
2023-02-02T16:35:36.577Z,87.91
2023-02-02T16:38:24.245Z,88.19
2023-02-02T16:41:11.464Z,88.39
2023-02-02T16:43:40.244Z,88.53
2023-02-02T16:46:12.778Z,88.70
2023-02-02T16:48:55.889Z,88.69
2023-02-02T16:51:27.621Z,89.04
2023-02-02T16:54:01.445Z,89.27
2023-02-02T16:56:41.179Z,89.17
2023-02-02T16:59:26.400Z,89.48
2023-02-02T17:01:57.333Z,89.85
2023-02-02T17:04:28.342Z,89.91
2023-02-02T17:06:57.635Z,90.04
2023-02-02T17:09:34.740Z,90.20
2023-02-02T17:12:33.599Z,90.19
2023-02-02T17:15:06.054Z,90.18
2023-02-02T17:17:33.044Z,90.81
2023-02-02T17:19:59.805Z,90.63
2023-02-02T17:22:27.784Z,90.93
2023-02-02T17:24:54.482Z,90.63
2023-02-02T17:27:33.978Z,91.05
2023-02-02T17:30:02.788Z,90.80
2023-02-02T17:32:29.531Z,91.18
2023-02-02T17:34:56.404Z,90.87
2023-02-02T17:37:22.983Z,91.24
2023-02-02T17:39:50.845Z,91.08
2023-02-02T17:42:24.582Z,91.21
2023-02-02T17:44:51.580Z,91.37
2023-02-02T17:47:18.332Z,91.22
2023-02-02T17:49:45.211Z,91.25
2023-02-02T17:52:12.796Z,91.24
2023-02-02T17:54:39.403Z,91.45
2023-02-02T17:57:06.176Z,91.43
2023-02-02T17:59:32.806Z,91.57
2023-02-02T18:01:59.903Z,91.51
2023-02-02T18:04:26.910Z,91.47
2023-02-02T18:06:53.642Z,91.50
2023-02-02T18:09:20.247Z,91.68
2023-02-02T18:11:50.014Z,91.71
2023-02-02T18:14:16.774Z,91.67
2023-02-02T18:16:43.528Z,91.89
2023-02-02T18:19:10.482Z,91.71
2023-02-02T18:21:37.578Z,91.67
2023-02-02T18:24:05.237Z,91.92
2023-02-02T18:26:32.742Z,91.57
2023-02-02T18:28:59.574Z,92.02
2023-02-02T18:31:27.045Z,91.83
2023-02-02T18:33:54.443Z,91.85
2023-02-02T18:36:23.711Z,92.04
2023-02-02T18:38:51.274Z,91.74
2023-02-02T18:41:18.728Z,91.90
2023-02-02T18:43:45.580Z,92.04
2023-02-02T18:46:45.837Z,92.09
2023-02-02T18:49:12.514Z,92.13
2023-02-02T18:51:39.379Z,91.95
2023-02-02T18:54:06.388Z,92.14
2023-02-02T18:56:33.173Z,92.12
2023-02-02T18:58:59.896Z,91.65
2023-02-02T19:01:26.911Z,91.60
2023-02-02T19:03:57.036Z,91.92
2023-02-02T19:06:42.903Z,91.97
2023-02-02T19:09:09.570Z,91.20
2023-02-02T19:11:39.978Z,91.33
2023-02-02T19:14:13.723Z,91.49
2023-02-02T19:16:40.724Z,91.29
2023-02-02T19:19:23.232Z,91.15
2023-02-02T19:21:55.856Z,90.89
2023-02-02T19:24:22.612Z,91.20
2023-02-02T19:26:50.245Z,90.90
2023-02-02T19:29:21.144Z,91.00
2023-02-02T19:32:05.055Z,90.93
2023-02-02T19:34:33.852Z,90.58
2023-02-02T19:37:18.101Z,90.44
2023-02-02T19:39:47.361Z,90.60
2023-02-02T19:42:14.314Z,90.61
2023-02-02T19:44:41.985Z,90.45
2023-02-02T19:47:26.221Z,90.27
2023-02-02T19:49:53.188Z,90.45
2023-02-02T19:52:24.062Z,90.48
2023-02-02T19:54:50.904Z,90.17
2023-02-02T19:57:33.308Z,90.40
2023-02-02T20:00:02.438Z,90.01
2023-02-02T20:02:48.019Z,90.12
2023-02-02T20:05:14.581Z,89.87
2023-02-02T20:07:41.398Z,89.95
2023-02-02T20:10:19.129Z,89.96
2023-02-02T20:12:45.842Z,89.72
2023-02-02T20:15:47.034Z,89.83
2023-02-02T20:18:20.156Z,89.65
2023-02-02T20:20:50.479Z,89.71
2023-02-02T20:23:35.476Z,89.88
2023-02-02T20:26:15.984Z,89.58
2023-02-02T20:28:46.091Z,89.67
2023-02-02T20:31:19.263Z,89.54
2023-02-02T20:33:50.421Z,89.12
2023-02-02T20:36:39.417Z,89.17
2023-02-02T20:39:15.240Z,88.77
2023-02-02T20:41:43.893Z,88.75
2023-02-02T20:44:11.697Z,88.79
2023-02-02T20:46:38.364Z,88.87
2023-02-02T20:49:05.684Z,89.06
2023-02-02T20:51:32.476Z,88.76
2023-02-02T20:53:59.180Z,88.45
2023-02-02T20:56:28.252Z,88.58
2023-02-02T20:58:55.017Z,88.30
2023-02-02T21:01:23.519Z,88.44
2023-02-02T21:04:09.718Z,88.59
2023-02-02T21:07:01.885Z,88.04
2023-02-02T21:09:40.195Z,88.35
2023-02-02T21:12:36.273Z,88.32
2023-02-02T21:15:21.920Z,88.10
2023-02-02T21:18:39.717Z,87.98
2023-02-02T21:21:37.888Z,87.73
2023-02-02T21:24:08.781Z,87.58
2023-02-02T21:26:38.963Z,87.14
2023-02-02T21:29:14.627Z,87.50
2023-02-02T21:31:42.269Z,87.48
2023-02-02T21:34:09.186Z,87.42
2023-02-02T21:36:44.593Z,87.43
2023-02-02T21:39:12.999Z,87.02
2023-02-02T21:41:39.655Z,87.29
2023-02-02T21:44:12.830Z,87.20
2023-02-02T21:46:40.092Z,86.82
2023-02-02T21:49:19.216Z,87.37
2023-02-02T21:51:45.999Z,86.84
2023-02-02T21:54:28.715Z,86.98
2023-02-02T21:56:55.969Z,86.92
2023-02-02T21:59:24.686Z,86.78
2023-02-02T22:01:52.843Z,86.47
2023-02-02T22:04:25.103Z,86.68
2023-02-02T22:06:53.889Z,86.59
2023-02-02T22:09:24.769Z,86.46
2023-02-02T22:12:02.228Z,86.58
2023-02-02T22:14:37.290Z,86.15
2023-02-02T22:17:16.812Z,86.50
2023-02-02T22:19:43.960Z,86.25
2023-02-02T22:22:20.191Z,86.05
2023-02-02T22:24:53.696Z,86.06
2023-02-02T22:27:23.601Z,85.77
2023-02-02T22:29:55.227Z,85.94
2023-02-02T22:32:21.865Z,85.87
2023-02-02T22:34:48.478Z,85.70
2023-02-02T22:37:15.172Z,85.71
2023-02-02T22:39:42.852Z,85.63
2023-02-02T22:42:10.565Z,85.70
2023-02-02T22:44:37.311Z,85.45
2023-02-02T22:47:04.098Z,85.39
2023-02-02T22:49:30.704Z,85.90
2023-02-02T22:51:57.328Z,85.95
2023-02-02T22:54:26.698Z,85.91
2023-02-02T22:56:53.342Z,85.72
2023-02-02T22:59:20.159Z,85.37
2023-02-02T23:01:46.807Z,85.41
2023-02-02T23:04:13.680Z,85.59
2023-02-02T23:06:40.385Z,85.40
2023-02-02T23:09:07.019Z,85.48
2023-02-02T23:11:33.703Z,85.33
2023-02-02T23:14:00.303Z,85.44
2023-02-02T23:16:26.971Z,84.87
2023-02-02T23:18:53.824Z,85.27
2023-02-02T23:21:20.396Z,84.93
2023-02-02T23:23:47.168Z,84.88
2023-02-02T23:26:13.870Z,85.28
2023-02-02T23:28:40.580Z,84.86
2023-02-02T23:31:07.383Z,85.01
2023-02-02T23:33:34.238Z,84.82
2023-02-02T23:36:00.865Z,84.51
2023-02-02T23:38:27.494Z,84.99
2023-02-02T23:40:54.113Z,84.81
2023-02-02T23:43:20.792Z,84.68
2023-02-02T23:45:47.443Z,84.25
2023-02-02T23:48:14.136Z,84.14
2023-02-02T23:50:41.435Z,84.48
2023-02-02T23:53:09.149Z,84.39
2023-02-02T23:55:36.183Z,83.91
2023-02-02T23:58:02.900Z,84.13
